KEDC

Details ICAO KEDC
Name Austin Executive Airpark
Region United States
Timezone America/Chicago (UTC-5.0)
Plans Departing 20
Arriving 37
Stats Elevation 761 ft / 232 m (AMSL)
Location 30.396557° -97.566428°
Runways 2
Magnetic Variation 3.703° E
Sunrise 2018-05-23 11:33:14 UTC / 2018-05-23 06:33:14 Local
Sunset 2018-05-24 01:23:42 UTC / 2018-05-23 20:23:42 Local
Advertisement - Login to hide

Runways

ID Width Length Bearing (true) Bearing (mag) Surface Threshold Offset Overrun Length
13 98 ft / 30 m 6,028 ft / 1,837 m 131.00° 127.30° Asphalt 600 ft / 183 m 0 ft / 0 m
16 25 ft / 8 m 1,553 ft / 473 m 165.00° 161.30° Asphalt 0 ft / 0 m 59 ft / 18 m
31 98 ft / 30 m 6,028 ft / 1,837 m 311.00° 307.30° Asphalt 0 ft / 0 m 0 ft / 0 m
34 25 ft / 8 m 1,553 ft / 473 m 345.00° 341.30° Asphalt 0 ft / 0 m 0 ft / 0 m

Map

Weather


0- 5 10 15 20 25 30 35+ Temperature / ° C

Clouds and Precipitation
Forecast for 2018-05-23 18:00 UTC. Updated 4 hours ago

Ground ~20,000 ft ~40,000 ft Winds

METAR

KEDC 232055Z AUTO 03010KT 10SM FEW085 30/21 A3001 RMK AO2

TAF

Not found

Frequencies

Recorded 118.25 MHz AWOS
Approach 127.22 MHz AUSTIN APCH
Unicom 122.97 MHz CTAF
Warning: Do not use this data for real-world aviation or navigation. No guarantee of current accuracy is given.